CNL weather

Las CaƱas Airport
Candelaria, Valle del Cauca Department, Colombia

Public forecast

Using degrees Celsius for public forecast. Weather courtesy of forecast.io.

METAR (pilot weather report)

Closest report is Alfonso Bonilla Aragon International Airport, 14.3 nm (26.5 km) N. Retrieved 2019/08/24 03:00 UTC (24 minutes ago):

SKCL 240300Z 36009KT 9999 SCT040 SCT100 25/18 A2999 NOSIG

TAF (pilot weather forecast)

Forecast is more than 12 hours old.

Closest forecast is Alfonso Bonilla Aragon International Airport, 14.3 nm (26.5 km) N. Retrieved 2019/08/23 00:30 UTC (1 day ago):

TAF SKCL 232230Z 2400/2424 10003KT 9999 FEW040 SCT150 BECMG 2402/2404 VRB02KT PROB30 TEMPO 2403/2406 DZRA SCT015 BKN080 BECMG 2409/2411 05005KT BECMG 2420/2422 36010KT TX33/2419Z TN18/2411Z